createdAt,value
2022-09-22T00:02:56.311Z,5.17
2022-09-22T00:09:06.115Z,5.53
2022-09-22T00:15:21.196Z,5.08
2022-09-22T00:21:35.682Z,5.33
2022-09-22T00:27:46.020Z,5.47
2022-09-22T00:33:59.757Z,5.28
2022-09-22T00:40:15.713Z,6.42
2022-09-22T00:46:24.989Z,4.65
2022-09-22T00:52:39.282Z,6.22
2022-09-22T00:58:51.281Z,6.60
2022-09-22T01:05:07.854Z,5.83
2022-09-22T01:11:22.321Z,6.33
2022-09-22T01:17:38.543Z,6.78
2022-09-22T01:24:27.739Z,6.03
2022-09-22T01:30:44.135Z,6.33
2022-09-22T01:37:03.411Z,7.12
2022-09-22T01:43:19.151Z,5.83
2022-09-22T01:49:34.736Z,5.28
2022-09-22T01:55:48.844Z,4.70
2022-09-22T02:02:05.142Z,5.55
2022-09-22T02:08:17.065Z,6.08
2022-09-22T02:14:31.813Z,5.47
2022-09-22T02:20:53.269Z,5.80
2022-09-22T02:27:13.224Z,5.85
2022-09-22T02:33:36.147Z,5.50
2022-09-22T02:39:49.485Z,5.70
2022-09-22T02:45:59.403Z,5.78
2022-09-22T02:52:18.164Z,5.15
2022-09-22T02:58:30.111Z,6.58
2022-09-22T03:04:39.504Z,5.90
2022-09-22T03:10:50.427Z,4.85
2022-09-22T03:17:02.738Z,4.65
2022-09-22T03:23:13.359Z,3.58
2022-09-22T03:29:28.017Z,4.25
2022-09-22T03:35:40.405Z,3.62
2022-09-22T03:41:51.480Z,4.05
2022-09-22T03:48:02.351Z,3.20
2022-09-22T03:54:15.006Z,3.87
2022-09-22T04:00:25.468Z,4.30
2022-09-22T04:06:39.016Z,3.27
2022-09-22T04:12:50.705Z,2.70
2022-09-22T04:19:01.940Z,3.02
2022-09-22T04:25:13.452Z,2.45
2022-09-22T04:31:26.318Z,2.25
2022-09-22T04:37:37.031Z,2.90
2022-09-22T04:43:49.654Z,2.62
2022-09-22T04:49:59.428Z,2.35
2022-09-22T04:56:15.276Z,2.10
2022-09-22T05:02:27.786Z,2.05
2022-09-22T05:08:38.669Z,1.30
2022-09-22T05:14:51.475Z,1.55
2022-09-22T05:21:04.078Z,2.10
2022-09-22T05:27:15.725Z,2.22
2022-09-22T05:33:28.684Z,1.92
2022-09-22T05:39:40.981Z,2.12
2022-09-22T05:45:51.026Z,2.00
2022-09-22T05:52:02.090Z,1.40
2022-09-22T05:58:14.088Z,1.67
2022-09-22T06:04:23.815Z,1.37
2022-09-22T06:10:34.572Z,2.00
2022-09-22T06:16:50.176Z,1.60
2022-09-22T06:22:59.525Z,1.77
2022-09-22T06:29:13.444Z,1.15
2022-09-22T06:35:26.681Z,1.35
2022-09-22T06:41:38.741Z,1.37
2022-09-22T06:47:52.377Z,1.37
2022-09-22T06:54:07.589Z,1.80
2022-09-22T07:00:22.795Z,1.33
2022-09-22T07:06:35.539Z,1.42
2022-09-22T07:12:47.407Z,0.95
2022-09-22T07:19:01.155Z,1.30
2022-09-22T07:25:14.546Z,1.60
2022-09-22T07:31:29.016Z,0.57
2022-09-22T07:37:40.211Z,0.80
2022-09-22T07:43:52.436Z,0.95
2022-09-22T07:50:06.274Z,0.98
2022-09-22T07:56:18.749Z,1.00
2022-09-22T08:02:32.526Z,0.88
2022-09-22T08:09:04.305Z,1.00
2022-09-22T08:15:19.947Z,0.68
2022-09-22T08:21:34.993Z,0.98
2022-09-22T08:27:48.627Z,0.90
2022-09-22T08:34:02.408Z,1.10
2022-09-22T08:40:25.884Z,1.20
2022-09-22T08:46:40.274Z,0.70
2022-09-22T08:52:57.381Z,1.02
2022-09-22T08:59:11.887Z,1.10
2022-09-22T09:05:54.192Z,0.57
2022-09-22T09:12:33.655Z,0.65
2022-09-22T09:18:50.801Z,0.95
2022-09-22T09:25:22.386Z,0.72
2022-09-22T09:31:22.562Z,1.65
2022-09-22T09:37:32.541Z,0.98
2022-09-22T09:43:47.917Z,0.82
2022-09-22T09:49:56.044Z,0.90
2022-09-22T09:56:09.932Z,0.80
2022-09-22T10:02:23.546Z,0.70
2022-09-22T10:08:36.046Z,0.70
2022-09-22T10:14:49.312Z,0.62
2022-09-22T10:21:09.748Z,0.72
2022-09-22T10:27:25.559Z,1.40
2022-09-22T10:33:43.080Z,0.62
2022-09-22T10:39:54.316Z,0.47
2022-09-22T10:46:10.611Z,0.60
2022-09-22T10:52:25.518Z,0.95
2022-09-22T10:58:45.452Z,0.60
2022-09-22T11:05:00.887Z,0.60
2022-09-22T11:11:30.257Z,0.67
2022-09-22T11:17:46.887Z,0.50
2022-09-22T11:24:10.725Z,0.40
2022-09-22T11:30:24.460Z,0.78
2022-09-22T11:36:41.213Z,0.55
2022-09-22T11:42:55.253Z,0.40
2022-09-22T11:49:12.436Z,0.68
2022-09-22T11:55:25.711Z,0.80
2022-09-22T12:01:39.860Z,0.40
2022-09-22T12:07:51.233Z,0.40
2022-09-22T12:14:05.525Z,0.57
2022-09-22T12:20:25.960Z,0.47
2022-09-22T12:26:39.246Z,0.95
2022-09-22T12:32:51.798Z,1.20
2022-09-22T12:39:33.166Z,0.70
2022-09-22T12:45:45.495Z,0.72
2022-09-22T12:51:56.881Z,0.72
2022-09-22T12:58:12.562Z,0.82
2022-09-22T13:04:24.569Z,0.40
2022-09-22T13:10:59.407Z,0.57
2022-09-22T13:17:30.280Z,0.55
2022-09-22T13:23:43.876Z,0.35
2022-09-22T13:30:03.583Z,0.60
2022-09-22T13:36:18.221Z,0.57
2022-09-22T13:42:34.013Z,0.33
2022-09-22T13:48:46.732Z,0.53
2022-09-22T13:54:59.478Z,0.25
2022-09-22T14:01:20.705Z,0.50
2022-09-22T14:07:49.579Z,0.78
2022-09-22T14:13:53.956Z,0.50
2022-09-22T14:20:02.861Z,0.85
2022-09-22T14:26:22.249Z,0.50
2022-09-22T14:32:35.957Z,0.60
2022-09-22T14:38:59.035Z,0.53
2022-09-22T14:45:00.561Z,0.88
2022-09-22T14:51:13.410Z,0.47
2022-09-22T14:57:29.034Z,0.30
2022-09-22T15:03:41.957Z,0.63
2022-09-22T15:09:58.703Z,0.78
2022-09-22T15:16:12.989Z,0.50
2022-09-22T15:22:24.736Z,0.88
2022-09-22T15:28:41.616Z,0.40
2022-09-22T15:34:55.789Z,0.70
2022-09-22T15:41:10.940Z,0.50
2022-09-22T15:47:25.495Z,0.40
2022-09-22T15:53:35.700Z,0.47
2022-09-22T15:59:49.855Z,0.30
2022-09-22T16:06:00.047Z,0.62
2022-09-22T16:12:17.939Z,0.30
2022-09-22T16:18:32.620Z,0.60
2022-09-22T16:24:42.105Z,0.42
2022-09-22T16:30:55.153Z,0.57
2022-09-22T16:37:07.340Z,0.50
2022-09-22T16:43:21.686Z,0.30
2022-09-22T16:49:34.371Z,0.47
2022-09-22T16:55:45.197Z,0.50
2022-09-22T17:01:56.019Z,0.45
2022-09-22T17:08:08.661Z,0.30
2022-09-22T17:14:19.373Z,0.45
2022-09-22T17:20:32.626Z,0.40
2022-09-22T17:26:47.955Z,0.50
2022-09-22T17:33:03.542Z,0.88
2022-09-22T17:39:18.409Z,0.40
2022-09-22T17:45:31.603Z,0.50
2022-09-22T17:52:00.228Z,0.40
2022-09-22T17:58:12.771Z,0.25
2022-09-22T18:04:27.004Z,0.40
2022-09-22T18:10:38.175Z,0.40
2022-09-22T18:16:50.459Z,0.50
2022-09-22T18:23:04.888Z,0.45
2022-09-22T18:29:19.647Z,0.72
2022-09-22T18:35:30.645Z,0.40
2022-09-22T18:41:43.753Z,0.40
2022-09-22T18:47:57.207Z,0.50
2022-09-22T18:54:13.762Z,0.68
2022-09-22T19:00:27.309Z,0.42
2022-09-22T19:06:58.005Z,0.50
2022-09-22T19:13:10.622Z,0.50
2022-09-22T19:19:25.055Z,0.70
2022-09-22T19:25:37.998Z,0.60
2022-09-22T19:31:45.412Z,0.80
2022-09-22T19:37:56.352Z,0.70
2022-09-22T19:44:06.070Z,0.72
2022-09-22T19:50:20.029Z,1.05
2022-09-22T19:56:31.035Z,0.78
2022-09-22T20:02:43.579Z,0.68
2022-09-22T20:08:57.613Z,0.57
2022-09-22T20:15:10.415Z,0.70
2022-09-22T20:21:23.444Z,0.62
2022-09-22T20:27:35.230Z,0.60
2022-09-22T20:33:48.572Z,0.78
2022-09-22T20:40:03.529Z,0.80
2022-09-22T20:46:18.418Z,0.80
2022-09-22T20:52:29.946Z,0.85
2022-09-22T20:58:42.368Z,0.72
2022-09-22T21:04:52.299Z,0.50
2022-09-22T21:11:03.363Z,0.60
2022-09-22T21:17:17.933Z,0.80
2022-09-22T21:23:27.086Z,0.60
2022-09-22T21:29:40.458Z,0.68
2022-09-22T21:35:49.169Z,0.50
2022-09-22T21:41:58.901Z,0.80
2022-09-22T21:48:08.294Z,0.70
2022-09-22T21:54:21.673Z,0.53
2022-09-22T22:00:51.223Z,0.80
2022-09-22T22:06:49.008Z,0.70
2022-09-22T22:12:59.666Z,0.68
2022-09-22T22:19:10.399Z,0.33
2022-09-22T22:25:23.770Z,0.53
2022-09-22T22:31:38.241Z,0.45
2022-09-22T22:37:51.514Z,1.00
2022-09-22T22:44:04.146Z,0.60
2022-09-22T22:50:18.914Z,0.60
2022-09-22T22:56:28.434Z,0.88
2022-09-22T23:02:39.162Z,0.90
2022-09-22T23:08:51.799Z,0.80
2022-09-22T23:15:02.515Z,0.70
2022-09-22T23:21:13.092Z,0.75
2022-09-22T23:27:23.102Z,0.70
2022-09-22T23:33:37.188Z,0.60
2022-09-22T23:39:46.936Z,0.80
2022-09-22T23:45:57.921Z,0.70
2022-09-22T23:52:11.008Z,0.50
2022-09-22T23:58:24.113Z,0.70
